createdAt,value
2022-10-01T00:00:17.882Z,7.98
2022-10-01T00:02:44.499Z,8.02
2022-10-01T00:05:11.116Z,8.03
2022-10-01T00:07:38.790Z,8.00
2022-10-01T00:10:06.790Z,7.70
2022-10-01T00:12:35.074Z,8.14
2022-10-01T00:15:05.737Z,8.04
2022-10-01T00:17:33.835Z,8.09
2022-10-01T00:20:01.108Z,8.24
2022-10-01T00:22:29.578Z,8.22
2022-10-01T00:24:56.106Z,8.01
2022-10-01T00:27:22.848Z,8.28
2022-10-01T00:29:50.679Z,8.29
2022-10-01T00:32:17.340Z,8.32
2022-10-01T00:34:43.930Z,8.33
2022-10-01T00:37:10.543Z,8.38
2022-10-01T00:39:37.245Z,8.37
2022-10-01T00:42:04.404Z,8.42
2022-10-01T00:44:33.572Z,8.34
2022-10-01T00:47:12.443Z,8.45
2022-10-01T00:49:39.945Z,8.33
2022-10-01T00:52:11.455Z,8.51
2022-10-01T00:54:43.297Z,8.57
2022-10-01T00:57:11.803Z,8.58
2022-10-01T00:59:38.370Z,8.37
2022-10-01T01:02:06.448Z,8.62
2022-10-01T01:04:32.992Z,8.56
2022-10-01T01:07:03.627Z,8.72
2022-10-01T01:09:33.345Z,8.77
2022-10-01T01:12:10.653Z,8.88
2022-10-01T01:14:45.100Z,8.92
2022-10-01T01:17:22.399Z,8.93
2022-10-01T01:20:07.646Z,8.92
2022-10-01T01:22:41.398Z,8.95
2022-10-01T01:25:17.502Z,9.00
2022-10-01T01:27:46.405Z,8.93
2022-10-01T01:30:17.470Z,9.06
2022-10-01T01:32:50.641Z,9.04
2022-10-01T01:35:23.426Z,9.12
2022-10-01T01:37:55.953Z,9.03
2022-10-01T01:40:25.272Z,9.18
2022-10-01T01:42:54.761Z,9.19
2022-10-01T01:45:26.782Z,9.19
2022-10-01T01:47:55.275Z,9.15
2022-10-01T01:50:24.729Z,9.24
2022-10-01T01:52:51.604Z,9.23
2022-10-01T01:55:18.536Z,9.39
2022-10-01T01:57:45.752Z,9.37
2022-10-01T02:00:13.479Z,9.31
2022-10-01T02:02:46.901Z,9.15
2022-10-01T02:05:17.789Z,9.45
2022-10-01T02:08:25.288Z,9.49
2022-10-01T02:11:04.355Z,9.47
2022-10-01T02:13:40.175Z,9.50
2022-10-01T02:16:14.149Z,9.36
2022-10-01T02:18:49.628Z,9.53
2022-10-01T02:21:21.119Z,9.46
2022-10-01T02:23:54.141Z,9.61
2022-10-01T02:26:23.051Z,9.65
2022-10-01T02:28:54.083Z,9.49
2022-10-01T02:31:23.096Z,9.75
2022-10-01T02:33:53.489Z,9.66
2022-10-01T02:36:22.062Z,9.85
2022-10-01T02:38:49.172Z,9.83
2022-10-01T02:41:20.287Z,9.72
2022-10-01T02:43:51.090Z,9.90
2022-10-01T02:46:23.449Z,9.88
2022-10-01T02:48:51.500Z,10.01
2022-10-01T02:51:27.518Z,10.02
2022-10-01T02:53:58.988Z,9.91
2022-10-01T02:56:27.131Z,9.58
2022-10-01T02:58:53.875Z,10.04
2022-10-01T03:01:20.537Z,10.07
2022-10-01T03:03:47.065Z,10.16
2022-10-01T03:06:15.001Z,10.12
2022-10-01T03:08:41.530Z,10.13
2022-10-01T03:11:08.149Z,10.14
2022-10-01T03:13:34.666Z,10.06
2022-10-01T03:16:01.839Z,10.21
2022-10-01T03:18:28.373Z,10.16
2022-10-01T03:20:54.956Z,10.00
2022-10-01T03:23:22.861Z,10.04
2022-10-01T03:25:49.429Z,10.12
2022-10-01T03:28:15.987Z,10.09
2022-10-01T03:30:42.600Z,10.12
2022-10-01T03:33:09.122Z,10.17
2022-10-01T03:35:35.683Z,10.31
2022-10-01T03:38:02.206Z,10.31
2022-10-01T03:40:30.218Z,10.38
2022-10-01T03:42:56.747Z,10.31
2022-10-01T03:45:23.426Z,10.29
2022-10-01T03:47:53.287Z,10.25
2022-10-01T03:50:20.031Z,10.30
2022-10-01T03:52:46.556Z,10.27
2022-10-01T03:55:13.278Z,10.33
2022-10-01T03:57:41.143Z,10.32
2022-10-01T04:00:10.917Z,10.45
2022-10-01T04:02:40.136Z,10.43
2022-10-01T04:05:07.385Z,10.44
2022-10-01T04:07:33.949Z,10.42
2022-10-01T04:10:00.459Z,10.46
2022-10-01T04:12:26.948Z,10.49
2022-10-01T04:14:54.846Z,10.34
2022-10-01T04:17:21.341Z,10.44
2022-10-01T04:19:47.827Z,10.24
2022-10-01T04:22:14.363Z,10.49
2022-10-01T04:24:40.854Z,10.59
2022-10-01T04:27:07.386Z,10.56
2022-10-01T04:29:38.029Z,10.54
2022-10-01T04:32:08.217Z,10.53
2022-10-01T04:34:34.779Z,10.58
2022-10-01T04:37:01.402Z,10.53
2022-10-01T04:39:27.912Z,10.63
2022-10-01T04:41:54.502Z,10.54
2022-10-01T04:44:20.974Z,10.56
2022-10-01T04:46:47.583Z,10.68
2022-10-01T04:49:15.658Z,10.69
2022-10-01T04:51:42.435Z,10.68
2022-10-01T04:54:09.023Z,10.77
2022-10-01T04:56:35.809Z,10.66
2022-10-01T04:59:02.388Z,10.72
2022-10-01T05:01:29.299Z,10.69
2022-10-01T05:03:55.841Z,10.86
2022-10-01T05:06:23.907Z,10.81
2022-10-01T05:08:51.448Z,10.71
2022-10-01T05:11:18.727Z,10.81
2022-10-01T05:13:45.284Z,10.88
2022-10-01T05:16:11.947Z,10.78
2022-10-01T05:18:38.615Z,10.55
2022-10-01T05:21:06.017Z,10.77
2022-10-01T05:23:34.279Z,10.82
2022-10-01T05:26:00.936Z,10.82
2022-10-01T05:28:27.544Z,10.77
2022-10-01T05:30:54.263Z,10.65
2022-10-01T05:33:20.764Z,10.84
2022-10-01T05:35:47.312Z,10.94
2022-10-01T05:38:13.917Z,10.91
2022-10-01T05:40:45.585Z,10.99
2022-10-01T05:43:12.316Z,11.07
2022-10-01T05:45:39.107Z,11.00
2022-10-01T05:48:07.633Z,11.17
2022-10-01T05:50:36.106Z,11.12
2022-10-01T05:53:03.120Z,11.10
2022-10-01T05:55:30.583Z,11.02
2022-10-01T05:58:00.268Z,11.01
2022-10-01T06:00:29.050Z,11.03
2022-10-01T06:02:56.363Z,11.05
2022-10-01T06:05:23.540Z,11.01
2022-10-01T06:07:50.624Z,10.69
2022-10-01T06:10:17.931Z,10.90
2022-10-01T06:12:44.891Z,11.11
2022-10-01T06:15:13.179Z,11.12
2022-10-01T06:17:40.027Z,10.90
2022-10-01T06:20:07.083Z,10.93
2022-10-01T06:22:33.615Z,10.92
2022-10-01T06:25:00.321Z,10.97
2022-10-01T06:27:27.108Z,11.11
2022-10-01T06:29:53.833Z,10.99
2022-10-01T06:32:21.818Z,11.07
2022-10-01T06:34:48.363Z,11.10
2022-10-01T06:37:14.919Z,11.13
2022-10-01T06:39:41.457Z,11.12
2022-10-01T06:42:07.990Z,11.12
2022-10-01T06:44:34.689Z,11.06
2022-10-01T06:47:01.250Z,10.99
2022-10-01T06:49:29.181Z,11.24
2022-10-01T06:51:55.745Z,11.12
2022-10-01T06:54:22.306Z,11.12
2022-10-01T06:56:48.826Z,11.33
2022-10-01T06:59:15.343Z,11.29
2022-10-01T07:01:41.916Z,11.30
2022-10-01T07:04:08.500Z,11.35
2022-10-01T07:06:36.408Z,11.37
2022-10-01T07:09:03.101Z,11.41
2022-10-01T07:11:29.593Z,11.51
2022-10-01T07:13:56.076Z,11.46
2022-10-01T07:16:22.687Z,11.55
2022-10-01T07:18:49.239Z,11.46
2022-10-01T07:21:15.744Z,11.56
2022-10-01T07:23:43.965Z,11.57
2022-10-01T07:26:10.487Z,11.60
2022-10-01T07:28:37.056Z,11.62
2022-10-01T07:31:07.407Z,11.66
2022-10-01T07:33:34.218Z,11.71
2022-10-01T07:36:01.716Z,11.75
2022-10-01T07:38:28.306Z,11.77
2022-10-01T07:40:56.254Z,11.71
2022-10-01T07:43:22.856Z,11.70
2022-10-01T07:45:50.038Z,11.72
2022-10-01T07:48:16.924Z,11.93
2022-10-01T07:50:43.952Z,11.97
2022-10-01T07:53:11.195Z,12.02
2022-10-01T07:55:38.304Z,11.78
2022-10-01T07:58:06.819Z,12.14
2022-10-01T08:00:34.575Z,12.18
2022-10-01T08:03:01.717Z,12.20
2022-10-01T08:05:29.917Z,12.25
2022-10-01T08:07:58.864Z,12.30
2022-10-01T08:10:25.520Z,12.39
2022-10-01T08:12:52.071Z,12.42
2022-10-01T08:15:19.976Z,12.48
2022-10-01T08:17:46.477Z,12.49
2022-10-01T08:20:13.770Z,12.49
2022-10-01T08:22:42.282Z,12.51
2022-10-01T08:25:09.882Z,12.64
2022-10-01T08:27:36.748Z,12.69
2022-10-01T08:30:03.947Z,12.70
2022-10-01T08:32:32.205Z,12.57
2022-10-01T08:34:58.713Z,12.57
2022-10-01T08:37:26.303Z,12.87
2022-10-01T08:39:53.318Z,12.75
2022-10-01T08:42:37.412Z,12.98
2022-10-01T08:45:10.146Z,13.02
2022-10-01T08:47:42.050Z,13.02
2022-10-01T08:50:16.860Z,13.11
2022-10-01T08:52:52.258Z,13.22
2022-10-01T08:55:24.274Z,13.28
2022-10-01T08:57:55.978Z,13.21
2022-10-01T09:00:22.778Z,13.13
2022-10-01T09:02:51.121Z,13.32
2022-10-01T09:05:22.695Z,13.30
2022-10-01T09:08:03.720Z,13.31
2022-10-01T09:10:43.537Z,13.35
2022-10-01T09:13:40.522Z,13.36
2022-10-01T09:16:15.926Z,13.50
2022-10-01T09:18:53.931Z,13.52
2022-10-01T09:21:27.901Z,13.55
2022-10-01T09:24:03.626Z,13.52
2022-10-01T09:26:30.722Z,13.49
2022-10-01T09:29:00.568Z,13.52
2022-10-01T09:31:32.100Z,13.46
2022-10-01T09:34:02.260Z,13.46
2022-10-01T09:36:34.808Z,13.45
2022-10-01T09:39:12.895Z,13.51
2022-10-01T09:41:40.006Z,13.45
2022-10-01T09:44:18.681Z,13.59
2022-10-01T09:46:46.677Z,13.60
2022-10-01T09:49:25.542Z,13.71
2022-10-01T09:51:57.492Z,13.83
2022-10-01T09:54:33.528Z,13.95
2022-10-01T09:57:06.051Z,14.10
2022-10-01T09:59:40.324Z,14.13
2022-10-01T10:02:15.875Z,14.16
2022-10-01T10:04:43.883Z,14.41
2022-10-01T10:07:18.470Z,14.51
2022-10-01T10:09:45.495Z,14.77
2022-10-01T10:12:27.053Z,14.85
2022-10-01T10:14:55.078Z,14.91
2022-10-01T10:17:21.889Z,15.10
2022-10-01T10:19:51.646Z,15.32
2022-10-01T10:22:22.325Z,15.39
2022-10-01T10:24:48.971Z,15.54
2022-10-01T10:27:24.454Z,15.76
2022-10-01T10:30:01.883Z,15.92
2022-10-01T10:32:28.708Z,16.04
2022-10-01T10:35:03.122Z,16.11
2022-10-01T10:37:34.044Z,16.27
2022-10-01T10:40:01.157Z,16.31
2022-10-01T10:42:27.733Z,16.39
2022-10-01T10:44:57.617Z,16.45
2022-10-01T10:47:24.368Z,16.49
2022-10-01T10:49:54.625Z,16.54
2022-10-01T10:52:27.853Z,16.43
2022-10-01T10:54:54.410Z,16.76
2022-10-01T10:57:24.388Z,16.31
2022-10-01T10:59:58.909Z,16.89
2022-10-01T11:02:27.312Z,16.96
2022-10-01T11:04:54.787Z,17.05
2022-10-01T11:07:25.450Z,17.05
2022-10-01T11:10:11.360Z,16.67
2022-10-01T11:12:54.658Z,16.76
2022-10-01T11:15:34.782Z,16.89
2022-10-01T11:18:17.884Z,17.27
2022-10-01T11:20:52.538Z,17.33
2022-10-01T11:23:35.715Z,17.99
2022-10-01T11:26:14.250Z,17.61
2022-10-01T11:28:53.283Z,18.01
2022-10-01T11:31:31.462Z,18.07
2022-10-01T11:34:12.485Z,18.11
2022-10-01T11:36:53.314Z,17.92
2022-10-01T11:39:28.140Z,18.14
2022-10-01T11:41:59.157Z,18.36
2022-10-01T11:44:31.476Z,18.16
2022-10-01T11:47:01.739Z,18.79
2022-10-01T11:49:44.840Z,18.72
2022-10-01T11:52:20.378Z,18.91
2022-10-01T11:54:59.019Z,18.71
2022-10-01T11:57:26.854Z,19.08
2022-10-01T11:59:56.507Z,19.35
2022-10-01T12:02:30.321Z,19.38
2022-10-01T12:05:01.245Z,19.40
2022-10-01T12:07:32.419Z,19.45
2022-10-01T12:10:05.404Z,19.56
2022-10-01T12:12:35.089Z,19.30
2022-10-01T12:15:09.375Z,19.15
2022-10-01T12:17:40.918Z,19.03
2022-10-01T12:20:13.426Z,18.47
2022-10-01T12:22:41.961Z,18.66
2022-10-01T12:25:12.915Z,18.54
2022-10-01T12:27:51.400Z,18.34
2022-10-01T12:30:20.351Z,18.66
2022-10-01T12:32:59.553Z,18.75
2022-10-01T12:35:42.094Z,18.72
2022-10-01T12:38:19.531Z,18.26
2022-10-01T12:40:52.558Z,18.44
2022-10-01T12:43:52.578Z,18.36
2022-10-01T12:46:31.217Z,18.30
2022-10-01T12:49:05.902Z,18.34
2022-10-01T12:51:44.492Z,18.47
2022-10-01T12:54:42.055Z,18.64
2022-10-01T12:57:22.247Z,18.46
2022-10-01T13:00:01.025Z,18.22
2022-10-01T13:03:01.928Z,18.02
2022-10-01T13:05:36.043Z,17.89
2022-10-01T13:08:16.623Z,17.85
2022-10-01T13:11:03.517Z,17.75
2022-10-01T13:13:33.004Z,17.69
2022-10-01T13:16:06.884Z,17.63
2022-10-01T13:18:43.352Z,17.56
2022-10-01T13:21:16.288Z,17.60
2022-10-01T13:23:50.511Z,17.50
2022-10-01T13:26:22.763Z,17.54
2022-10-01T13:29:11.245Z,17.71
2022-10-01T13:31:50.874Z,18.04
2022-10-01T13:34:39.016Z,18.32
2022-10-01T13:37:16.785Z,18.49
2022-10-01T13:39:43.841Z,18.71
2022-10-01T13:42:19.197Z,18.79
2022-10-01T13:44:53.199Z,19.09
2022-10-01T13:47:21.474Z,19.17
2022-10-01T13:49:55.010Z,19.17
2022-10-01T13:52:21.714Z,19.02
2022-10-01T13:54:51.550Z,18.88
2022-10-01T13:57:29.335Z,18.70
2022-10-01T14:00:05.500Z,18.45
2022-10-01T14:02:37.227Z,18.06
2022-10-01T14:05:20.286Z,17.99
2022-10-01T14:07:48.785Z,17.73
2022-10-01T14:10:16.283Z,17.76
2022-10-01T14:12:45.568Z,17.48
2022-10-01T14:15:18.520Z,17.64
2022-10-01T14:17:49.827Z,18.01
2022-10-01T14:20:18.479Z,18.24
2022-10-01T14:22:55.313Z,18.29
2022-10-01T14:25:40.038Z,18.61
2022-10-01T14:28:28.677Z,18.54
2022-10-01T14:31:06.632Z,18.70
2022-10-01T14:33:53.623Z,18.63
2022-10-01T14:36:25.272Z,18.71
2022-10-01T14:39:02.339Z,18.79
2022-10-01T14:41:34.261Z,18.87
2022-10-01T14:44:01.513Z,18.95
2022-10-01T14:46:29.570Z,18.86
2022-10-01T14:48:57.892Z,18.91
2022-10-01T14:51:27.098Z,18.89
2022-10-01T14:53:56.470Z,18.58
2022-10-01T14:56:23.686Z,18.53
2022-10-01T14:58:55.505Z,18.42
2022-10-01T15:01:23.795Z,18.19
2022-10-01T15:03:52.618Z,17.97
2022-10-01T15:06:21.150Z,17.76
2022-10-01T15:08:49.306Z,17.59
2022-10-01T15:11:18.361Z,17.41
2022-10-01T15:13:47.787Z,17.24
2022-10-01T15:16:17.623Z,17.01
2022-10-01T15:18:48.059Z,17.04
2022-10-01T15:21:19.811Z,16.94
2022-10-01T15:23:48.700Z,16.91
2022-10-01T15:26:22.275Z,16.93
2022-10-01T15:28:49.332Z,16.84
2022-10-01T15:31:16.655Z,16.87
2022-10-01T15:33:43.775Z,17.04
2022-10-01T15:36:15.231Z,17.22
2022-10-01T15:38:44.884Z,17.32
2022-10-01T15:41:31.730Z,17.55
2022-10-01T15:44:02.398Z,17.62
2022-10-01T15:46:30.426Z,17.76
2022-10-01T15:49:17.336Z,17.89
2022-10-01T15:51:48.423Z,17.88
2022-10-01T15:54:16.444Z,17.77
2022-10-01T15:56:47.342Z,17.57
2022-10-01T15:59:19.470Z,17.61
2022-10-01T16:01:46.200Z,17.59
2022-10-01T16:04:14.332Z,17.64
2022-10-01T16:06:43.758Z,17.61
2022-10-01T16:09:16.849Z,17.42
2022-10-01T16:11:54.933Z,17.37
2022-10-01T16:14:29.321Z,17.25
2022-10-01T16:17:29.387Z,17.22
2022-10-01T16:19:58.253Z,17.01
2022-10-01T16:22:27.830Z,16.78
2022-10-01T16:24:57.323Z,16.63
2022-10-01T16:27:26.483Z,16.49
2022-10-01T16:29:55.355Z,16.17
2022-10-01T16:32:21.972Z,16.19
2022-10-01T16:34:48.560Z,16.08
2022-10-01T16:37:15.712Z,15.90
2022-10-01T16:39:42.387Z,15.85
2022-10-01T16:42:24.095Z,15.63
2022-10-01T16:44:51.424Z,15.65
2022-10-01T16:47:17.958Z,15.55
2022-10-01T16:49:46.495Z,15.40
2022-10-01T16:52:14.160Z,15.26
2022-10-01T16:54:40.746Z,15.03
2022-10-01T16:57:07.255Z,14.98
2022-10-01T16:59:35.198Z,14.88
2022-10-01T17:02:01.845Z,14.66
2022-10-01T17:04:33.372Z,14.66
2022-10-01T17:07:00.590Z,14.48
2022-10-01T17:09:27.107Z,14.44
2022-10-01T17:11:53.932Z,14.35
2022-10-01T17:14:20.483Z,14.28
2022-10-01T17:16:48.695Z,14.17
2022-10-01T17:19:15.265Z,13.99
2022-10-01T17:21:41.886Z,13.90
2022-10-01T17:24:08.566Z,13.88
2022-10-01T17:26:35.558Z,13.63
2022-10-01T17:29:02.390Z,13.57
2022-10-01T17:31:28.977Z,13.64
2022-10-01T17:33:56.931Z,13.55
2022-10-01T17:36:23.539Z,13.46
2022-10-01T17:38:50.067Z,13.22
2022-10-01T17:41:16.735Z,13.27
2022-10-01T17:43:45.677Z,13.15
2022-10-01T17:46:12.320Z,13.04
2022-10-01T17:48:38.897Z,13.07
2022-10-01T17:51:08.712Z,13.00
2022-10-01T17:53:42.297Z,12.94
2022-10-01T17:56:12.303Z,12.78
2022-10-01T17:58:42.957Z,12.82
2022-10-01T18:01:14.573Z,12.52
2022-10-01T18:03:41.169Z,12.63
2022-10-01T18:06:09.101Z,12.32
2022-10-01T18:08:54.066Z,12.60
2022-10-01T18:11:21.783Z,12.42
2022-10-01T18:13:48.308Z,12.36
2022-10-01T18:16:18.889Z,12.39
2022-10-01T18:19:51.868Z,12.27
2022-10-01T18:21:33.900Z,12.32
2022-10-01T18:24:04.551Z,12.31
2022-10-01T18:26:31.864Z,12.09
2022-10-01T18:28:58.462Z,12.17
2022-10-01T18:31:26.951Z,12.27
2022-10-01T18:33:55.840Z,12.25
2022-10-01T18:36:26.609Z,12.25
2022-10-01T18:39:03.335Z,12.03
2022-10-01T18:41:34.569Z,12.18
2022-10-01T18:44:01.626Z,12.05
2022-10-01T18:46:51.590Z,12.05
2022-10-01T18:49:48.000Z,11.98
2022-10-01T18:52:26.502Z,11.75
2022-10-01T18:55:09.381Z,11.85
2022-10-01T18:57:58.858Z,11.64
2022-10-01T19:00:33.501Z,11.70
2022-10-01T19:03:25.841Z,11.58
2022-10-01T19:06:28.618Z,11.58
2022-10-01T19:09:09.249Z,11.47
2022-10-01T19:11:44.919Z,11.37
2022-10-01T19:14:37.664Z,11.31
2022-10-01T19:17:16.734Z,11.12
2022-10-01T19:19:53.812Z,11.11
2022-10-01T19:22:28.277Z,11.09
2022-10-01T19:25:06.473Z,11.04
2022-10-01T19:27:47.838Z,10.99
2022-10-01T19:30:16.136Z,10.80
2022-10-01T19:32:49.445Z,10.92
2022-10-01T19:35:19.948Z,10.85
2022-10-01T19:37:51.312Z,10.81
2022-10-01T19:40:25.436Z,10.71
2022-10-01T19:43:00.755Z,10.65
2022-10-01T19:45:38.184Z,10.59
2022-10-01T19:48:12.661Z,10.54
2022-10-01T19:50:43.336Z,10.48
2022-10-01T19:53:21.470Z,10.28
2022-10-01T19:55:51.183Z,10.34
2022-10-01T19:58:20.718Z,10.28
2022-10-01T20:00:51.817Z,10.22
2022-10-01T20:03:25.823Z,10.16
2022-10-01T20:05:56.671Z,10.06
2022-10-01T20:08:32.470Z,10.06
2022-10-01T20:11:03.624Z,9.86
2022-10-01T20:14:00.106Z,9.98
2022-10-01T20:16:30.216Z,9.91
2022-10-01T20:19:06.930Z,9.72
2022-10-01T20:21:45.440Z,9.69
2022-10-01T20:24:29.953Z,9.82
2022-10-01T20:27:11.844Z,9.55
2022-10-01T20:29:46.533Z,9.69
2022-10-01T20:32:18.501Z,9.60
2022-10-01T20:34:58.143Z,9.53
2022-10-01T20:37:37.268Z,9.66
2022-10-01T20:40:14.559Z,9.48
2022-10-01T20:42:45.863Z,9.49
2022-10-01T20:45:21.539Z,9.56
2022-10-01T20:47:52.945Z,9.53
2022-10-01T20:50:24.723Z,9.39
2022-10-01T20:53:00.876Z,9.41
2022-10-01T20:55:36.031Z,9.19
2022-10-01T20:58:07.870Z,9.22
2022-10-01T21:00:37.620Z,9.31
2022-10-01T21:03:12.150Z,9.30
2022-10-01T21:05:43.013Z,9.16
2022-10-01T21:08:24.042Z,9.08
2022-10-01T21:10:54.169Z,9.17
2022-10-01T21:13:32.237Z,8.99
2022-10-01T21:16:11.262Z,9.08
2022-10-01T21:18:46.185Z,9.02
2022-10-01T21:21:25.355Z,8.99
2022-10-01T21:24:06.800Z,8.94
2022-10-01T21:26:43.826Z,8.73
2022-10-01T21:29:29.061Z,8.89
2022-10-01T21:32:07.166Z,8.84
2022-10-01T21:34:49.321Z,8.61
2022-10-01T21:37:20.536Z,8.72
2022-10-01T21:40:00.988Z,8.44
2022-10-01T21:42:40.173Z,8.54
2022-10-01T21:45:20.067Z,8.60
2022-10-01T21:48:02.268Z,8.57
2022-10-01T21:50:42.402Z,8.58
2022-10-01T21:53:29.178Z,8.64
2022-10-01T21:56:13.773Z,8.70
2022-10-01T21:58:52.184Z,8.62
2022-10-01T22:01:29.304Z,8.43
2022-10-01T22:04:05.295Z,8.44
2022-10-01T22:06:38.085Z,7.98
2022-10-01T22:09:13.130Z,8.48
2022-10-01T22:11:45.591Z,8.48
2022-10-01T22:14:15.201Z,8.49
2022-10-01T22:16:49.723Z,8.55
2022-10-01T22:19:21.317Z,8.55
2022-10-01T22:21:52.893Z,8.66
2022-10-01T22:24:23.326Z,8.65
2022-10-01T22:26:54.632Z,8.68
2022-10-01T22:29:26.300Z,8.76
2022-10-01T22:32:01.060Z,8.77
2022-10-01T22:34:33.768Z,8.77
2022-10-01T22:37:05.320Z,8.80
2022-10-01T22:39:36.549Z,8.81
2022-10-01T22:42:07.813Z,8.80
2022-10-01T22:44:34.782Z,8.66
2022-10-01T22:47:17.112Z,8.84
2022-10-01T22:50:10.156Z,8.85
2022-10-01T22:52:45.506Z,8.85
2022-10-01T22:55:24.913Z,8.86
2022-10-01T22:58:02.574Z,8.86
2022-10-01T23:00:35.700Z,8.81
2022-10-01T23:03:14.512Z,8.79
2022-10-01T23:05:53.094Z,8.95
2022-10-01T23:08:29.693Z,8.90
2022-10-01T23:11:16.467Z,8.87
2022-10-01T23:13:50.775Z,8.82
2022-10-01T23:16:26.688Z,8.86
2022-10-01T23:19:04.234Z,8.97
2022-10-01T23:21:40.749Z,8.85
2022-10-01T23:24:20.629Z,8.82
2022-10-01T23:27:00.093Z,9.05
2022-10-01T23:30:02.379Z,9.09
2022-10-01T23:32:38.820Z,9.02
2022-10-01T23:35:13.183Z,9.07
2022-10-01T23:38:05.946Z,9.06
2022-10-01T23:40:36.401Z,8.97
2022-10-01T23:43:09.654Z,9.04
2022-10-01T23:45:39.873Z,9.02
2022-10-01T23:48:13.745Z,9.04
2022-10-01T23:50:51.752Z,8.98
2022-10-01T23:53:25.005Z,9.02
2022-10-01T23:56:02.775Z,8.78
2022-10-01T23:58:40.197Z,9.06
